Airfield :
LOGIN :

Register | Disclaimer

   EN    FR    IT 

 










Legend :    VFR   Marginal VFR   IFR   Intensive IFR   Very Intensive IFR
Visi :
Ceiling :
>= 8 km
>= 3000ft
5 to 8 km
1000 to 3000 ft
1500m to 5 km
500 to 1000 ft
800 to 1500m
200 to 500 ft
< 800m
< 200 ft
Symbols :   Thunderstorms  Fog  Heavy snow  Heavy precipitations  Wind > 20 kt
SIGMETs :     Misc.  Thunderstorms  Icing  Turbulence  Mountain Waves  Volcanic Ashes






- Airport Elevation : 135 ft
- IATA code : EDI


EGPH - Edinburgh

CURRENT METAR :
  • 131720Z 23015KT 9999 BKN031 21/14 Q1019

EXPIRED METARs :
  • 131650Z 22015KT 9999 SCT029 21/14 Q1019
  • 131620Z 22017KT 9999 SCT031 21/14 Q1019
  • 131550Z 22016KT 9999 SCT032 22/14 Q1020
  • 131520Z 24018KT 9999 SCT031 22/15 Q1020

TAF TAF EGPH
Valid from the 13 at 18:00 until the 14 at 18:00 UTC


131656Z 1318/1418 22012KT 9999 SCT030
PROB30
TEMPO 1318/1322 8000 -RA
PROB30
TEMPO 1318/1319 25015G28KT
TEMPO 1322/1404 7000 -RA BKN012
PROB30
TEMPO 1400/1404 4000 RA BKN008
TEMPO 1403/1406 26015G25KT
BECMG 1406/1409 26018G30KT
ATIS : +44 131 339 2823



MET'MAP, your aeronautical weather chart ! - Copyright ORBIFLY December 2007 - Disclaimer

ORBIFLY MET'MAP TEAM :

Programming & Development : Alexandra Zaïnal
Concept & original design : Baudouin d'Aumeries
Assistance for programming : Marc-Olivier Méhu
Technical & hardware support : Manuel Goepfert

Contact : metmap@orbifly.com




SOURCES & CREDITS :

   NOAA